createdAt,value
2023-05-03T00:00:19.284Z,100.00
2023-05-03T00:02:47.806Z,100.00
2023-05-03T00:05:16.378Z,100.00
2023-05-03T00:07:45.560Z,100.00
2023-05-03T00:10:14.612Z,100.00
2023-05-03T00:12:43.891Z,100.00
2023-05-03T00:15:12.632Z,100.00
2023-05-03T00:17:40.780Z,100.00
2023-05-03T00:20:09.656Z,100.00
2023-05-03T00:22:38.030Z,100.00
2023-05-03T00:25:06.381Z,100.00
2023-05-03T00:27:34.282Z,100.00
2023-05-03T00:30:02.500Z,100.00
2023-05-03T00:32:30.712Z,100.00
2023-05-03T00:34:59.234Z,100.00
2023-05-03T00:37:27.504Z,100.00
2023-05-03T00:39:55.430Z,100.00
2023-05-03T00:42:23.408Z,100.00
2023-05-03T00:44:51.978Z,100.00
2023-05-03T00:47:21.398Z,100.00
2023-05-03T00:49:49.476Z,100.00
2023-05-03T00:52:17.905Z,100.00
2023-05-03T00:54:45.809Z,100.00
2023-05-03T00:57:13.676Z,100.00
2023-05-03T00:59:41.647Z,100.00
2023-05-03T01:02:09.707Z,100.00
2023-05-03T01:04:39.344Z,100.00
2023-05-03T01:07:33.391Z,100.00
2023-05-03T01:10:36.206Z,100.00
2023-05-03T01:13:13.290Z,100.00
2023-05-03T01:15:49.487Z,100.00
2023-05-03T01:18:28.264Z,100.00
2023-05-03T01:20:57.987Z,100.00
2023-05-03T01:23:34.655Z,100.00
2023-05-03T01:26:26.035Z,100.00
2023-05-03T01:28:54.130Z,100.00
2023-05-03T01:31:47.717Z,100.00
2023-05-03T01:34:18.392Z,100.00
2023-05-03T01:36:47.322Z,100.00
2023-05-03T01:39:26.114Z,100.00
2023-05-03T01:41:55.406Z,100.00
2023-05-03T01:44:24.862Z,100.00
2023-05-03T01:46:52.830Z,100.00
2023-05-03T01:49:20.748Z,100.00
2023-05-03T01:51:48.599Z,100.00
2023-05-03T01:54:17.554Z,100.00
2023-05-03T01:56:45.948Z,100.00
2023-05-03T01:59:13.874Z,100.00
2023-05-03T02:01:41.876Z,100.00
2023-05-03T02:04:09.905Z,100.00
2023-05-03T02:06:37.960Z,100.00
2023-05-03T02:09:05.984Z,100.00
2023-05-03T02:11:33.984Z,100.00
2023-05-03T02:14:01.870Z,100.00
2023-05-03T02:16:30.560Z,100.00
2023-05-03T02:19:00.756Z,100.00
2023-05-03T02:21:28.748Z,100.00
2023-05-03T02:23:56.819Z,100.00
2023-05-03T02:26:24.657Z,100.00
2023-05-03T02:28:52.625Z,100.00
2023-05-03T02:31:20.591Z,100.00
2023-05-03T02:33:48.444Z,100.00
2023-05-03T02:36:16.321Z,100.00
2023-05-03T02:38:44.309Z,100.00
2023-05-03T02:41:12.347Z,100.00
2023-05-03T02:43:40.378Z,100.00
2023-05-03T02:46:08.301Z,100.00
2023-05-03T02:48:36.132Z,100.00
2023-05-03T02:51:04.723Z,100.00
2023-05-03T02:53:32.789Z,100.00
2023-05-03T02:56:00.666Z,100.00
2023-05-03T02:58:28.672Z,100.00
2023-05-03T03:00:56.652Z,100.00
2023-05-03T03:03:24.486Z,100.00
2023-05-03T03:05:52.381Z,100.00
2023-05-03T03:08:20.313Z,100.00
2023-05-03T03:10:48.359Z,100.00
2023-05-03T03:13:16.302Z,100.00
2023-05-03T03:15:44.165Z,100.00
2023-05-03T03:18:12.200Z,100.00
2023-05-03T03:20:40.210Z,100.00
2023-05-03T03:23:08.651Z,100.00
2023-05-03T03:25:36.561Z,100.00
2023-05-03T03:28:04.404Z,100.00
2023-05-03T03:30:32.679Z,100.00
2023-05-03T03:33:00.690Z,100.00
2023-05-03T03:35:28.930Z,100.00
2023-05-03T03:37:56.803Z,100.00
2023-05-03T03:40:24.741Z,100.00
2023-05-03T03:42:52.544Z,100.00
2023-05-03T03:45:20.681Z,100.00
2023-05-03T03:47:48.572Z,100.00
2023-05-03T03:50:16.615Z,100.00
2023-05-03T03:52:44.482Z,100.00
2023-05-03T03:55:12.935Z,100.00
2023-05-03T03:57:40.875Z,100.00
2023-05-03T04:00:13.085Z,100.00
2023-05-03T04:02:41.322Z,100.00
2023-05-03T04:05:09.602Z,100.00
2023-05-03T04:07:37.534Z,100.00
2023-05-03T04:10:05.925Z,100.00
2023-05-03T04:12:35.382Z,100.00
2023-05-03T04:15:03.700Z,100.00
2023-05-03T04:17:31.665Z,100.00
2023-05-03T04:19:59.505Z,100.00
2023-05-03T04:22:27.452Z,100.00
2023-05-03T04:24:56.056Z,100.00
2023-05-03T04:27:24.066Z,100.00
2023-05-03T04:29:52.169Z,100.00
2023-05-03T04:32:24.449Z,100.00
2023-05-03T04:34:54.005Z,100.00
2023-05-03T04:37:23.683Z,100.00
2023-05-03T04:39:51.796Z,100.00
2023-05-03T04:42:19.790Z,100.00
2023-05-03T04:44:48.218Z,100.00
2023-05-03T04:47:16.169Z,100.00
2023-05-03T04:49:43.986Z,100.00
2023-05-03T04:52:12.073Z,100.00
2023-05-03T04:54:40.220Z,100.00
2023-05-03T04:57:08.497Z,100.00
2023-05-03T04:59:36.380Z,100.00
2023-05-03T05:02:04.373Z,100.00
2023-05-03T05:04:32.353Z,100.00
2023-05-03T05:07:00.838Z,100.00
2023-05-03T05:09:30.634Z,100.00
2023-05-03T05:11:58.788Z,100.00
2023-05-03T05:14:29.650Z,100.00
2023-05-03T05:16:57.875Z,100.00
2023-05-03T05:19:25.810Z,100.00
2023-05-03T05:21:54.102Z,100.00
2023-05-03T05:24:22.116Z,100.00
2023-05-03T05:26:50.467Z,100.00
2023-05-03T05:29:18.478Z,100.00
2023-05-03T05:31:46.493Z,100.00
2023-05-03T05:34:14.524Z,100.00
2023-05-03T05:36:42.484Z,100.00
2023-05-03T05:39:11.041Z,100.00
2023-05-03T05:41:39.035Z,100.00
2023-05-03T05:44:07.304Z,100.00
2023-05-03T05:46:35.273Z,100.00
2023-05-03T05:49:03.234Z,100.00
2023-05-03T05:51:33.110Z,100.00
2023-05-03T05:54:00.992Z,99.99
2023-05-03T05:56:28.975Z,100.00
2023-05-03T05:58:57.532Z,99.87
2023-05-03T06:01:25.527Z,99.79
2023-05-03T06:03:53.623Z,99.40
2023-05-03T06:06:21.560Z,98.78
2023-05-03T06:08:51.256Z,98.96
2023-05-03T06:11:19.662Z,98.82
2023-05-03T06:13:47.662Z,98.48
2023-05-03T06:16:15.617Z,98.23
2023-05-03T06:18:43.583Z,98.16
2023-05-03T06:21:12.674Z,98.03
2023-05-03T06:23:41.705Z,97.45
2023-05-03T06:26:10.082Z,97.26
2023-05-03T06:28:38.473Z,97.17
2023-05-03T06:31:06.601Z,97.25
2023-05-03T06:33:34.542Z,95.25
2023-05-03T06:36:02.948Z,96.64
2023-05-03T06:38:30.785Z,94.12
2023-05-03T06:40:58.684Z,94.87
2023-05-03T06:43:27.139Z,92.74
2023-05-03T06:45:55.148Z,92.98
2023-05-03T06:48:23.205Z,92.78
2023-05-03T06:50:52.066Z,92.71
2023-05-03T06:53:20.212Z,92.38
2023-05-03T06:55:48.332Z,92.09
2023-05-03T06:58:17.236Z,92.03
2023-05-03T07:00:45.157Z,91.46
2023-05-03T07:03:13.270Z,91.20
2023-05-03T07:05:42.025Z,90.93
2023-05-03T07:08:09.992Z,90.72
2023-05-03T07:10:37.960Z,90.45
2023-05-03T07:13:05.806Z,90.07
2023-05-03T07:15:33.812Z,90.05
2023-05-03T07:18:01.620Z,89.99
2023-05-03T07:20:29.728Z,89.97
2023-05-03T07:22:57.732Z,89.52
2023-05-03T07:25:25.657Z,89.54
2023-05-03T07:27:53.820Z,89.66
2023-05-03T07:30:22.107Z,89.22
2023-05-03T07:32:50.276Z,89.40
2023-05-03T07:35:18.659Z,89.53
2023-05-03T07:37:46.654Z,89.20
2023-05-03T07:40:14.616Z,88.92
2023-05-03T07:42:42.498Z,88.77
2023-05-03T07:45:11.014Z,88.50
2023-05-03T07:47:40.692Z,88.11
2023-05-03T07:50:09.163Z,87.98
2023-05-03T07:52:38.672Z,87.74
2023-05-03T07:55:08.197Z,87.46
2023-05-03T07:57:36.061Z,87.64
2023-05-03T08:00:06.854Z,87.65
2023-05-03T08:02:34.932Z,87.23
2023-05-03T08:05:03.156Z,86.68
2023-05-03T08:07:31.884Z,86.70
2023-05-03T08:10:00.385Z,86.85
2023-05-03T08:12:28.959Z,86.54
2023-05-03T08:14:57.842Z,86.61
2023-05-03T08:17:25.762Z,86.12
2023-05-03T08:19:53.734Z,86.19
2023-05-03T08:22:22.022Z,85.99
2023-05-03T08:24:50.493Z,85.93
2023-05-03T08:27:18.677Z,85.99
2023-05-03T08:29:46.677Z,85.91
2023-05-03T08:32:14.652Z,85.65
2023-05-03T08:34:42.800Z,85.37
2023-05-03T08:37:10.664Z,85.05
2023-05-03T08:39:38.582Z,84.70
2023-05-03T08:42:10.349Z,84.57
2023-05-03T08:44:39.591Z,84.31
2023-05-03T08:47:08.632Z,84.29
2023-05-03T08:49:37.849Z,84.37
2023-05-03T08:52:07.887Z,84.37
2023-05-03T08:54:35.828Z,84.34
2023-05-03T08:57:03.976Z,84.37
2023-05-03T08:59:31.842Z,84.11
2023-05-03T09:01:59.849Z,83.58
2023-05-03T09:04:35.962Z,83.24
2023-05-03T09:07:13.977Z,82.91
2023-05-03T09:09:42.469Z,82.80
2023-05-03T09:12:11.345Z,81.25
2023-05-03T09:14:48.737Z,80.99
2023-05-03T09:17:19.271Z,80.16
2023-05-03T09:19:57.623Z,80.22
2023-05-03T09:22:29.240Z,79.79
2023-05-03T09:24:59.812Z,79.17
2023-05-03T09:27:28.545Z,79.26
2023-05-03T09:29:56.962Z,79.13
2023-05-03T09:32:25.598Z,77.34
2023-05-03T09:35:10.418Z,78.42
2023-05-03T09:37:39.891Z,77.85
2023-05-03T09:40:12.904Z,77.59
2023-05-03T09:42:44.941Z,77.38
2023-05-03T09:45:13.156Z,77.03
2023-05-03T09:48:08.768Z,76.50
2023-05-03T09:50:38.001Z,75.59
2023-05-03T09:53:07.300Z,76.21
2023-05-03T09:55:40.812Z,75.68
2023-05-03T09:58:09.345Z,74.33
2023-05-03T10:00:41.726Z,74.69
2023-05-03T10:03:11.759Z,72.57
2023-05-03T10:05:52.717Z,72.97
2023-05-03T10:08:28.465Z,72.42
2023-05-03T10:10:56.570Z,72.38
2023-05-03T10:13:25.461Z,71.13
2023-05-03T10:16:06.781Z,71.69
2023-05-03T10:18:39.110Z,70.05
2023-05-03T10:21:15.851Z,71.33
2023-05-03T10:24:10.781Z,71.07
2023-05-03T10:26:38.676Z,69.40
2023-05-03T10:29:08.542Z,69.87
2023-05-03T10:31:49.683Z,69.16
2023-05-03T10:34:22.962Z,68.05
2023-05-03T10:36:53.840Z,65.90
2023-05-03T10:39:23.379Z,67.79
2023-05-03T10:42:10.560Z,67.80
2023-05-03T10:44:52.520Z,66.17
2023-05-03T10:47:25.423Z,66.42
2023-05-03T10:50:18.397Z,66.10
2023-05-03T10:52:46.429Z,64.47
2023-05-03T10:55:22.472Z,64.66
2023-05-03T10:57:51.699Z,64.43
2023-05-03T11:00:34.974Z,65.21
2023-05-03T11:03:25.041Z,63.79
2023-05-03T11:05:56.384Z,63.23
2023-05-03T11:08:27.327Z,64.17
2023-05-03T11:11:03.876Z,63.94
2023-05-03T11:13:31.935Z,63.47
2023-05-03T11:15:59.916Z,63.65
2023-05-03T11:18:28.910Z,62.78
2023-05-03T11:20:57.295Z,62.85
2023-05-03T11:23:32.840Z,62.81
2023-05-03T11:26:00.829Z,61.11
2023-05-03T11:28:28.884Z,61.24
2023-05-03T11:30:56.810Z,61.27
2023-05-03T11:33:25.170Z,61.53
2023-05-03T11:35:57.586Z,60.84
2023-05-03T11:38:25.707Z,60.55
2023-05-03T11:40:53.712Z,60.68
2023-05-03T11:43:21.805Z,60.62
2023-05-03T11:45:52.295Z,60.99
2023-05-03T11:48:20.632Z,60.79
2023-05-03T11:50:57.813Z,60.69
2023-05-03T11:53:27.098Z,59.78
2023-05-03T11:55:55.762Z,59.88
2023-05-03T11:58:27.670Z,59.72
2023-05-03T12:00:58.344Z,59.65
2023-05-03T12:03:31.835Z,58.71
2023-05-03T12:06:02.519Z,59.49
2023-05-03T12:08:37.920Z,58.97
2023-05-03T12:11:09.861Z,58.94
2023-05-03T12:13:40.686Z,59.17
2023-05-03T12:16:14.608Z,58.92
2023-05-03T12:19:05.258Z,58.43
2023-05-03T12:22:13.279Z,57.65
2023-05-03T12:24:45.096Z,57.39
2023-05-03T12:27:14.966Z,57.99
2023-05-03T12:29:42.999Z,56.73
2023-05-03T12:32:12.297Z,57.03
2023-05-03T12:34:41.838Z,56.66
2023-05-03T12:37:11.972Z,56.69
2023-05-03T12:39:40.781Z,56.90
2023-05-03T12:42:09.803Z,56.99
2023-05-03T12:44:43.024Z,56.81
2023-05-03T12:47:16.200Z,56.63
2023-05-03T12:49:52.271Z,56.65
2023-05-03T12:52:37.483Z,56.64
2023-05-03T12:55:11.145Z,56.10
2023-05-03T12:57:39.737Z,56.07
2023-05-03T13:00:14.660Z,55.72
2023-05-03T13:05:30.504Z,55.58
2023-05-03T13:08:09.085Z,55.60
2023-05-03T13:10:42.468Z,55.65
2023-05-03T13:13:10.866Z,53.98
2023-05-03T13:15:39.294Z,55.22
2023-05-03T13:18:07.992Z,54.87
2023-05-03T13:20:37.536Z,55.21
2023-05-03T13:23:06.031Z,55.42
2023-05-03T13:25:36.871Z,55.13
2023-05-03T13:28:05.172Z,55.39
2023-05-03T13:30:33.100Z,55.41
2023-05-03T13:33:01.053Z,55.65
2023-05-03T13:35:29.205Z,55.60
2023-05-03T13:37:57.267Z,55.51
2023-05-03T13:40:25.935Z,55.53
2023-05-03T13:42:53.872Z,55.40
2023-05-03T13:45:22.032Z,55.76
2023-05-03T13:48:13.261Z,55.72
2023-05-03T13:50:37.876Z,54.88
2023-05-03T13:53:05.893Z,54.71
2023-05-03T13:55:33.803Z,54.51
2023-05-03T13:58:01.660Z,55.28
2023-05-03T14:00:31.601Z,55.30
2023-05-03T14:03:00.299Z,55.55
2023-05-03T14:05:28.581Z,55.48
2023-05-03T14:07:57.074Z,55.15
2023-05-03T14:10:25.110Z,55.27
2023-05-03T14:12:54.258Z,55.34
2023-05-03T14:15:22.243Z,54.83
2023-05-03T14:17:50.446Z,54.89
2023-05-03T14:20:21.359Z,55.01
2023-05-03T14:22:49.393Z,54.08
2023-05-03T14:25:17.589Z,54.62
2023-05-03T14:27:45.517Z,54.54
2023-05-03T14:30:13.855Z,54.04
2023-05-03T14:32:41.861Z,53.86
2023-05-03T14:35:10.473Z,53.38
2023-05-03T14:37:38.626Z,53.11
2023-05-03T14:40:07.742Z,52.73
2023-05-03T14:42:36.171Z,52.62
2023-05-03T14:45:04.341Z,52.33
2023-05-03T14:47:32.700Z,52.30
2023-05-03T14:50:00.716Z,52.10
2023-05-03T14:52:29.248Z,51.77
2023-05-03T14:54:57.188Z,51.09
2023-05-03T14:57:25.397Z,51.50
2023-05-03T14:59:53.306Z,51.15
2023-05-03T15:02:21.244Z,51.50
2023-05-03T15:04:49.148Z,51.42
2023-05-03T15:07:17.154Z,50.93
2023-05-03T15:09:46.098Z,50.72
2023-05-03T15:12:14.091Z,50.45
2023-05-03T15:14:42.224Z,50.00
2023-05-03T15:17:10.142Z,49.88
2023-05-03T15:19:38.251Z,49.94
2023-05-03T15:22:06.205Z,49.34
2023-05-03T15:24:34.174Z,49.67
2023-05-03T15:27:04.177Z,49.23
2023-05-03T15:29:32.783Z,49.13
2023-05-03T15:32:00.899Z,49.00
2023-05-03T15:34:29.222Z,48.76
2023-05-03T15:36:57.430Z,47.67
2023-05-03T15:39:25.897Z,48.48
2023-05-03T15:41:53.785Z,48.42
2023-05-03T15:44:21.702Z,48.50
2023-05-03T15:46:49.793Z,48.25
2023-05-03T15:49:17.788Z,48.25
2023-05-03T15:51:45.713Z,48.44
2023-05-03T15:54:13.570Z,48.29
2023-05-03T15:56:41.528Z,47.65
2023-05-03T15:59:10.072Z,47.67
2023-05-03T16:01:38.596Z,47.59
2023-05-03T16:04:08.976Z,47.29
2023-05-03T16:06:36.965Z,46.98
2023-05-03T16:09:05.414Z,46.94
2023-05-03T16:11:33.433Z,47.11
2023-05-03T16:14:01.464Z,47.37
2023-05-03T16:16:29.563Z,47.26
2023-05-03T16:18:57.443Z,47.15
2023-05-03T16:21:25.379Z,47.16
2023-05-03T16:23:53.672Z,47.17
2023-05-03T16:26:21.528Z,46.89
2023-05-03T16:28:50.216Z,46.76
2023-05-03T16:31:18.384Z,46.76
2023-05-03T16:33:46.390Z,46.98
2023-05-03T16:36:14.568Z,47.15
2023-05-03T16:38:42.585Z,47.01
2023-05-03T16:41:10.585Z,46.99
2023-05-03T16:43:39.577Z,46.84
2023-05-03T16:46:07.962Z,46.74
2023-05-03T16:48:35.965Z,46.72
2023-05-03T16:51:04.034Z,46.49
2023-05-03T16:53:32.737Z,47.01
2023-05-03T16:56:01.226Z,47.17
2023-05-03T16:58:29.306Z,47.34
2023-05-03T17:00:57.551Z,47.37
2023-05-03T17:03:26.592Z,47.43
2023-05-03T17:05:55.146Z,47.46
2023-05-03T17:08:23.059Z,47.79
2023-05-03T17:10:51.343Z,47.95
2023-05-03T17:13:19.331Z,48.13
2023-05-03T17:15:47.648Z,48.36
2023-05-03T17:18:15.702Z,48.42
2023-05-03T17:20:44.329Z,48.43
2023-05-03T17:23:12.354Z,48.73
2023-05-03T17:25:40.349Z,48.59
2023-05-03T17:28:08.178Z,48.66
2023-05-03T17:30:36.278Z,48.73
2023-05-03T17:33:04.164Z,48.87
2023-05-03T17:35:32.100Z,49.03
2023-05-03T17:38:00.038Z,49.24
2023-05-03T17:40:27.970Z,49.46
2023-05-03T17:42:56.110Z,49.65
2023-05-03T17:45:26.498Z,49.83
2023-05-03T17:47:54.457Z,50.07
2023-05-03T17:50:22.352Z,50.20
2023-05-03T17:52:50.253Z,50.27
2023-05-03T17:55:18.538Z,50.69
2023-05-03T17:57:47.095Z,50.54
2023-05-03T18:00:18.451Z,50.57
2023-05-03T18:02:46.373Z,50.81
2023-05-03T18:05:15.231Z,50.93
2023-05-03T18:07:43.523Z,51.04
2023-05-03T18:10:15.920Z,51.18
2023-05-03T18:12:44.612Z,51.34
2023-05-03T18:15:12.975Z,51.48
2023-05-03T18:17:40.915Z,51.64
2023-05-03T18:20:10.153Z,51.78
2023-05-03T18:22:38.824Z,51.89
2023-05-03T18:25:08.591Z,51.99
2023-05-03T18:27:38.581Z,52.17
2023-05-03T18:30:07.866Z,52.31
2023-05-03T18:32:36.260Z,52.32
2023-05-03T18:35:04.950Z,52.46
2023-05-03T18:37:32.910Z,52.70
2023-05-03T18:40:00.914Z,52.66
2023-05-03T18:42:29.152Z,52.78
2023-05-03T18:44:57.075Z,52.86
2023-05-03T18:47:25.262Z,53.10
2023-05-03T18:49:54.069Z,53.20
2023-05-03T18:52:22.491Z,53.17
2023-05-03T18:54:51.158Z,53.21
2023-05-03T18:57:20.118Z,53.45
2023-05-03T19:00:07.729Z,53.45
2023-05-03T19:02:36.549Z,53.44
2023-05-03T19:05:04.600Z,53.63
2023-05-03T19:07:32.561Z,53.82
2023-05-03T19:10:00.546Z,53.90
2023-05-03T19:12:28.747Z,54.02
2023-05-03T19:14:56.675Z,54.33
2023-05-03T19:17:24.596Z,54.62
2023-05-03T19:19:52.812Z,54.82
2023-05-03T19:22:20.773Z,54.99
2023-05-03T19:24:49.403Z,55.02
2023-05-03T19:27:18.810Z,55.21
2023-05-03T19:29:46.878Z,55.86
2023-05-03T19:32:14.810Z,56.07
2023-05-03T19:34:43.191Z,56.18
2023-05-03T19:37:11.134Z,56.57
2023-05-03T19:39:39.094Z,57.05
2023-05-03T19:42:07.129Z,57.17
2023-05-03T19:44:35.395Z,57.35
2023-05-03T19:47:03.319Z,57.82
2023-05-03T19:49:31.436Z,58.03
2023-05-03T19:51:59.372Z,58.13
2023-05-03T19:54:27.479Z,58.24
2023-05-03T19:56:56.629Z,58.31
2023-05-03T19:59:24.666Z,58.78
2023-05-03T20:01:52.898Z,59.08
2023-05-03T20:04:20.893Z,59.15
2023-05-03T20:06:48.949Z,59.52
2023-05-03T20:09:16.934Z,59.74
2023-05-03T20:11:44.839Z,60.14
2023-05-03T20:14:12.999Z,60.21
2023-05-03T20:16:41.247Z,60.43
2023-05-03T20:19:09.243Z,60.56
2023-05-03T20:21:37.133Z,61.14
2023-05-03T20:24:06.174Z,61.63
2023-05-03T20:26:34.028Z,61.99
2023-05-03T20:29:02.227Z,62.08
2023-05-03T20:31:30.183Z,62.34
2023-05-03T20:33:58.316Z,62.40
2023-05-03T20:36:26.365Z,62.40
2023-05-03T20:38:56.044Z,62.83
2023-05-03T20:41:24.522Z,63.16
2023-05-03T20:43:53.231Z,63.50
2023-05-03T20:46:21.252Z,63.10
2023-05-03T20:48:49.372Z,63.02
2023-05-03T20:51:17.314Z,63.41
2023-05-03T20:53:45.524Z,63.29
2023-05-03T20:56:13.831Z,63.56
2023-05-03T20:58:41.862Z,63.83
2023-05-03T21:01:09.795Z,64.02
2023-05-03T21:03:37.783Z,64.14
2023-05-03T21:06:08.048Z,64.51
2023-05-03T21:08:36.333Z,64.75
2023-05-03T21:11:05.495Z,65.03
2023-05-03T21:13:36.868Z,65.01
2023-05-03T21:16:04.998Z,65.28
2023-05-03T21:18:33.162Z,65.53
2023-05-03T21:21:01.130Z,65.72
2023-05-03T21:23:29.074Z,65.74
2023-05-03T21:25:57.048Z,65.93
2023-05-03T21:28:25.095Z,66.22
2023-05-03T21:30:55.851Z,66.37
2023-05-03T21:33:24.085Z,66.87
2023-05-03T21:35:52.036Z,66.91
2023-05-03T21:38:19.923Z,67.31
2023-05-03T21:40:48.540Z,67.57
2023-05-03T21:43:16.630Z,67.65
2023-05-03T21:45:45.319Z,67.82
2023-05-03T21:48:13.866Z,68.16
2023-05-03T21:50:41.853Z,68.40
2023-05-03T21:53:09.785Z,68.80
2023-05-03T21:55:37.681Z,69.15
2023-05-03T21:58:06.144Z,69.51
2023-05-03T22:00:37.306Z,69.73
2023-05-03T22:03:05.374Z,70.15
2023-05-03T22:05:33.669Z,70.81
2023-05-03T22:08:02.438Z,70.86
2023-05-03T22:10:30.352Z,71.02
2023-05-03T22:12:58.329Z,71.22
2023-05-03T22:15:26.219Z,71.75
2023-05-03T22:17:54.185Z,71.98
2023-05-03T22:20:22.353Z,72.14
2023-05-03T22:22:50.291Z,72.10
2023-05-03T22:25:30.070Z,72.26
2023-05-03T22:27:59.387Z,72.75
2023-05-03T22:30:27.508Z,72.49
2023-05-03T22:32:55.505Z,72.78
2023-05-03T22:35:23.616Z,72.89
2023-05-03T22:37:51.506Z,73.31
2023-05-03T22:40:19.338Z,73.58
2023-05-03T22:42:47.154Z,73.69
2023-05-03T22:45:15.255Z,73.84
2023-05-03T22:47:44.715Z,73.81
2023-05-03T22:50:12.812Z,73.90
2023-05-03T22:52:40.788Z,73.91
2023-05-03T22:55:09.660Z,73.94
2023-05-03T22:57:37.914Z,74.11
2023-05-03T23:00:06.508Z,74.36
2023-05-03T23:02:35.144Z,74.59
2023-05-03T23:05:03.160Z,74.75
2023-05-03T23:07:31.638Z,75.00
2023-05-03T23:10:04.506Z,75.12
2023-05-03T23:12:32.632Z,75.52
2023-05-03T23:15:00.998Z,75.38
2023-05-03T23:17:29.044Z,75.48
2023-05-03T23:19:57.099Z,75.48
2023-05-03T23:22:25.070Z,75.51
2023-05-03T23:24:52.896Z,75.40
2023-05-03T23:27:20.787Z,75.62
2023-05-03T23:29:49.501Z,75.93
2023-05-03T23:32:17.877Z,75.82
2023-05-03T23:34:46.229Z,75.95
2023-05-03T23:37:14.129Z,76.18
2023-05-03T23:39:46.059Z,76.23
2023-05-03T23:42:14.252Z,76.80
2023-05-03T23:44:54.591Z,76.93
2023-05-03T23:47:23.589Z,76.72
2023-05-03T23:49:51.535Z,76.80
2023-05-03T23:52:21.236Z,77.18
2023-05-03T23:54:49.286Z,77.39
2023-05-03T23:57:17.484Z,77.50
2023-05-03T23:59:45.630Z,78.04
